sensor_id;sensor_type;location;lat;lon;timestamp;P1;durP1;ratioP1;P2;durP2;ratioP2
19971;SDS011;10147;16.402;102.848;2023-08-21T00:00:46;26.55;;;23.95;;
19971;SDS011;10147;16.402;102.848;2023-08-21T00:03:16;35.38;;;32.53;;
19971;SDS011;10147;16.402;102.848;2023-08-21T00:05:46;37.30;;;34.05;;
19971;SDS011;10147;16.402;102.848;2023-08-21T00:08:16;25.90;;;23.38;;
19971;SDS011;10147;16.402;102.848;2023-08-21T00:10:46;26.13;;;23.58;;
19971;SDS011;10147;16.402;102.848;2023-08-21T00:13:16;26.70;;;24.10;;
19971;SDS011;10147;16.402;102.848;2023-08-21T00:15:47;25.98;;;23.40;;
19971;SDS011;10147;16.402;102.848;2023-08-21T00:18:18;24.73;;;22.33;;
19971;SDS011;10147;16.402;102.848;2023-08-21T00:20:48;23.23;;;20.83;;
19971;SDS011;10147;16.402;102.848;2023-08-21T00:23:18;24.55;;;22.20;;
19971;SDS011;10147;16.402;102.848;2023-08-21T00:25:48;25.85;;;23.27;;
19971;SDS011;10147;16.402;102.848;2023-08-21T00:28:17;44.17;;;40.38;;
19971;SDS011;10147;16.402;102.848;2023-08-21T00:30:48;40.45;;;36.33;;
19971;SDS011;10147;16.402;102.848;2023-08-21T00:33:19;25.88;;;23.40;;
19971;SDS011;10147;16.402;102.848;2023-08-21T00:35:48;24.58;;;22.08;;
19971;SDS011;10147;16.402;102.848;2023-08-21T00:38:18;25.52;;;23.23;;
19971;SDS011;10147;16.402;102.848;2023-08-21T00:40:48;24.55;;;22.42;;
19971;SDS011;10147;16.402;102.848;2023-08-21T00:43:18;24.02;;;21.63;;
19971;SDS011;10147;16.402;102.848;2023-08-21T00:45:49;24.63;;;22.13;;
19971;SDS011;10147;16.402;102.848;2023-08-21T00:48:19;24.98;;;22.63;;
19971;SDS011;10147;16.402;102.848;2023-08-21T00:50:50;24.40;;;21.95;;
19971;SDS011;10147;16.402;102.848;2023-08-21T00:53:20;24.17;;;21.88;;
19971;SDS011;10147;16.402;102.848;2023-08-21T00:55:51;25.88;;;23.35;;
19971;SDS011;10147;16.402;102.848;2023-08-21T00:58:21;23.13;;;21.05;;
19971;SDS011;10147;16.402;102.848;2023-08-21T01:00:51;22.98;;;20.88;;
19971;SDS011;10147;16.402;102.848;2023-08-21T01:03:22;22.27;;;20.27;;
19971;SDS011;10147;16.402;102.848;2023-08-21T01:05:54;22.23;;;20.05;;
19971;SDS011;10147;16.402;102.848;2023-08-21T01:08:35;25.35;;;23.02;;
19971;SDS011;10147;16.402;102.848;2023-08-21T01:11:25;21.25;;;19.25;;
19971;SDS011;10147;16.402;102.848;2023-08-21T01:17:13;32.97;;;30.08;;
19971;SDS011;10147;16.402;102.848;2023-08-21T01:19:47;21.00;;;18.98;;
19971;SDS011;10147;16.402;102.848;2023-08-21T01:22:18;19.40;;;17.58;;
19971;SDS011;10147;16.402;102.848;2023-08-21T01:24:50;21.33;;;19.27;;
19971;SDS011;10147;16.402;102.848;2023-08-21T01:27:20;21.27;;;19.35;;
19971;SDS011;10147;16.402;102.848;2023-08-21T01:29:50;23.17;;;21.08;;
19971;SDS011;10147;16.402;102.848;2023-08-21T01:32:28;19.73;;;17.95;;
19971;SDS011;10147;16.402;102.848;2023-08-21T01:35:04;19.38;;;17.58;;
19971;SDS011;10147;16.402;102.848;2023-08-21T01:37:36;19.83;;;17.92;;
19971;SDS011;10147;16.402;102.848;2023-08-21T01:40:06;19.63;;;18.00;;
19971;SDS011;10147;16.402;102.848;2023-08-21T01:42:38;22.50;;;20.52;;
19971;SDS011;10147;16.402;102.848;2023-08-21T01:45:08;18.80;;;17.10;;
19971;SDS011;10147;16.402;102.848;2023-08-21T01:47:38;17.80;;;16.20;;
19971;SDS011;10147;16.402;102.848;2023-08-21T01:50:08;19.40;;;17.55;;
19971;SDS011;10147;16.402;102.848;2023-08-21T01:52:38;18.45;;;16.95;;
19971;SDS011;10147;16.402;102.848;2023-08-21T01:55:09;18.55;;;16.88;;
19971;SDS011;10147;16.402;102.848;2023-08-21T01:57:40;18.02;;;16.45;;
19971;SDS011;10147;16.402;102.848;2023-08-21T02:00:11;17.55;;;15.95;;
19971;SDS011;10147;16.402;102.848;2023-08-21T02:02:43;16.88;;;15.27;;
19971;SDS011;10147;16.402;102.848;2023-08-21T02:05:13;17.70;;;15.98;;
19971;SDS011;10147;16.402;102.848;2023-08-21T02:07:43;18.00;;;16.30;;
19971;SDS011;10147;16.402;102.848;2023-08-21T02:10:14;17.90;;;16.40;;
19971;SDS011;10147;16.402;102.848;2023-08-21T02:12:44;18.42;;;16.75;;
19971;SDS011;10147;16.402;102.848;2023-08-21T02:15:14;19.10;;;17.50;;
19971;SDS011;10147;16.402;102.848;2023-08-21T02:17:44;15.63;;;14.27;;
19971;SDS011;10147;16.402;102.848;2023-08-21T02:20:14;16.85;;;15.27;;
19971;SDS011;10147;16.402;102.848;2023-08-21T02:22:44;18.23;;;16.50;;
19971;SDS011;10147;16.402;102.848;2023-08-21T02:25:15;16.08;;;14.70;;
19971;SDS011;10147;16.402;102.848;2023-08-21T02:27:44;16.17;;;14.77;;
19971;SDS011;10147;16.402;102.848;2023-08-21T02:30:15;15.60;;;14.20;;
19971;SDS011;10147;16.402;102.848;2023-08-21T02:32:45;15.38;;;13.80;;
19971;SDS011;10147;16.402;102.848;2023-08-21T02:35:15;14.32;;;13.07;;
19971;SDS011;10147;16.402;102.848;2023-08-21T02:37:45;14.23;;;12.75;;
19971;SDS011;10147;16.402;102.848;2023-08-21T02:40:15;14.35;;;12.95;;
19971;SDS011;10147;16.402;102.848;2023-08-21T02:42:46;14.98;;;13.55;;
19971;SDS011;10147;16.402;102.848;2023-08-21T02:45:15;14.82;;;13.40;;
19971;SDS011;10147;16.402;102.848;2023-08-21T02:47:48;13.85;;;12.57;;
19971;SDS011;10147;16.402;102.848;2023-08-21T02:50:17;14.07;;;12.25;;
19971;SDS011;10147;16.402;102.848;2023-08-21T02:52:48;14.23;;;12.95;;
19971;SDS011;10147;16.402;102.848;2023-08-21T02:55:18;14.88;;;12.73;;
19971;SDS011;10147;16.402;102.848;2023-08-21T02:57:49;14.65;;;13.25;;
19971;SDS011;10147;16.402;102.848;2023-08-21T03:00:19;13.95;;;12.55;;
19971;SDS011;10147;16.402;102.848;2023-08-21T03:02:49;14.02;;;12.70;;
19971;SDS011;10147;16.402;102.848;2023-08-21T03:05:20;14.23;;;12.73;;
19971;SDS011;10147;16.402;102.848;2023-08-21T03:07:50;15.32;;;13.82;;
19971;SDS011;10147;16.402;102.848;2023-08-21T03:10:20;14.40;;;12.90;;
19971;SDS011;10147;16.402;102.848;2023-08-21T03:12:52;13.93;;;12.63;;
19971;SDS011;10147;16.402;102.848;2023-08-21T03:15:23;22.55;;;20.80;;
19971;SDS011;10147;16.402;102.848;2023-08-21T03:17:53;39.38;;;36.20;;
19971;SDS011;10147;16.402;102.848;2023-08-21T03:20:24;37.05;;;33.80;;
19971;SDS011;10147;16.402;102.848;2023-08-21T03:22:53;14.93;;;13.63;;
19971;SDS011;10147;16.402;102.848;2023-08-21T03:25:24;16.13;;;14.73;;
19971;SDS011;10147;16.402;102.848;2023-08-21T03:27:54;15.25;;;13.73;;
19971;SDS011;10147;16.402;102.848;2023-08-21T03:30:24;14.23;;;12.90;;
19971;SDS011;10147;16.402;102.848;2023-08-21T03:32:54;15.05;;;13.55;;
19971;SDS011;10147;16.402;102.848;2023-08-21T03:35:24;15.60;;;14.15;;
19971;SDS011;10147;16.402;102.848;2023-08-21T03:37:53;15.15;;;13.65;;
19971;SDS011;10147;16.402;102.848;2023-08-21T03:40:25;13.63;;;12.32;;
19971;SDS011;10147;16.402;102.848;2023-08-21T03:42:55;13.93;;;12.52;;
19971;SDS011;10147;16.402;102.848;2023-08-21T03:45:25;13.77;;;12.48;;
19971;SDS011;10147;16.402;102.848;2023-08-21T03:47:55;13.40;;;12.10;;
19971;SDS011;10147;16.402;102.848;2023-08-21T03:50:25;12.55;;;11.27;;
19971;SDS011;10147;16.402;102.848;2023-08-21T03:52:55;12.55;;;11.45;;
19971;SDS011;10147;16.402;102.848;2023-08-21T03:55:25;12.82;;;11.52;;
19971;SDS011;10147;16.402;102.848;2023-08-21T03:57:55;14.38;;;12.90;;
19971;SDS011;10147;16.402;102.848;2023-08-21T04:00:26;14.43;;;12.93;;
19971;SDS011;10147;16.402;102.848;2023-08-21T04:02:57;14.90;;;13.50;;
19971;SDS011;10147;16.402;102.848;2023-08-21T04:05:27;14.82;;;13.43;;
19971;SDS011;10147;16.402;102.848;2023-08-21T04:07:57;14.02;;;12.73;;
19971;SDS011;10147;16.402;102.848;2023-08-21T04:10:27;14.18;;;12.80;;
19971;SDS011;10147;16.402;102.848;2023-08-21T04:12:58;14.18;;;12.77;;
19971;SDS011;10147;16.402;102.848;2023-08-21T04:15:31;14.27;;;12.93;;
19971;SDS011;10147;16.402;102.848;2023-08-21T04:18:04;13.70;;;12.30;;
19971;SDS011;10147;16.402;102.848;2023-08-21T04:20:35;15.02;;;13.30;;
19971;SDS011;10147;16.402;102.848;2023-08-21T04:23:07;13.65;;;12.35;;
19971;SDS011;10147;16.402;102.848;2023-08-21T04:25:37;13.13;;;11.75;;
19971;SDS011;10147;16.402;102.848;2023-08-21T04:28:06;13.63;;;12.05;;
19971;SDS011;10147;16.402;102.848;2023-08-21T04:30:39;13.57;;;12.38;;
19971;SDS011;10147;16.402;102.848;2023-08-21T04:33:10;13.90;;;12.40;;
19971;SDS011;10147;16.402;102.848;2023-08-21T04:35:40;13.68;;;12.27;;
19971;SDS011;10147;16.402;102.848;2023-08-21T04:38:10;13.82;;;12.40;;
19971;SDS011;10147;16.402;102.848;2023-08-21T04:40:40;15.27;;;12.75;;
19971;SDS011;10147;16.402;102.848;2023-08-21T04:43:11;13.70;;;12.27;;
19971;SDS011;10147;16.402;102.848;2023-08-21T04:45:51;14.00;;;11.95;;
19971;SDS011;10147;16.402;102.848;2023-08-21T04:48:24;13.73;;;12.32;;
19971;SDS011;10147;16.402;102.848;2023-08-21T04:50:55;14.98;;;13.38;;
19971;SDS011;10147;16.402;102.848;2023-08-21T04:53:25;14.82;;;12.77;;
19971;SDS011;10147;16.402;102.848;2023-08-21T04:55:58;14.82;;;12.88;;
19971;SDS011;10147;16.402;102.848;2023-08-21T04:58:31;15.10;;;12.82;;
19971;SDS011;10147;16.402;102.848;2023-08-21T05:01:01;14.85;;;13.40;;
19971;SDS011;10147;16.402;102.848;2023-08-21T05:03:36;15.43;;;13.82;;
19971;SDS011;10147;16.402;102.848;2023-08-21T05:06:06;14.98;;;13.57;;
19971;SDS011;10147;16.402;102.848;2023-08-21T05:08:37;15.90;;;14.38;;
19971;SDS011;10147;16.402;102.848;2023-08-21T05:11:09;14.60;;;13.10;;
19971;SDS011;10147;16.402;102.848;2023-08-21T05:13:41;16.38;;;14.75;;
19971;SDS011;10147;16.402;102.848;2023-08-21T05:16:13;24.92;;;22.85;;
19971;SDS011;10147;16.402;102.848;2023-08-21T05:18:44;28.42;;;26.05;;
19971;SDS011;10147;16.402;102.848;2023-08-21T05:21:15;15.73;;;13.95;;
19971;SDS011;10147;16.402;102.848;2023-08-21T05:23:46;16.48;;;14.80;;
19971;SDS011;10147;16.402;102.848;2023-08-21T05:26:16;17.33;;;15.52;;
19971;SDS011;10147;16.402;102.848;2023-08-21T05:28:46;17.90;;;14.35;;
19971;SDS011;10147;16.402;102.848;2023-08-21T05:31:15;15.95;;;14.27;;
19971;SDS011;10147;16.402;102.848;2023-08-21T05:33:51;17.75;;;15.85;;
19971;SDS011;10147;16.402;102.848;2023-08-21T05:36:21;15.65;;;14.02;;
19971;SDS011;10147;16.402;102.848;2023-08-21T05:38:51;18.05;;;13.20;;
19971;SDS011;10147;16.402;102.848;2023-08-21T05:41:28;15.88;;;14.07;;
19971;SDS011;10147;16.402;102.848;2023-08-21T05:43:58;15.40;;;13.50;;
19971;SDS011;10147;16.402;102.848;2023-08-21T05:46:28;15.73;;;14.13;;
19971;SDS011;10147;16.402;102.848;2023-08-21T05:48:59;16.27;;;13.77;;
19971;SDS011;10147;16.402;102.848;2023-08-21T05:54:32;18.70;;;16.70;;
19971;SDS011;10147;16.402;102.848;2023-08-21T05:57:03;19.58;;;17.67;;
19971;SDS011;10147;16.402;102.848;2023-08-21T05:59:34;19.08;;;16.42;;
19971;SDS011;10147;16.402;102.848;2023-08-21T06:02:04;17.40;;;14.50;;
19971;SDS011;10147;16.402;102.848;2023-08-21T06:04:34;16.60;;;14.32;;
19971;SDS011;10147;16.402;102.848;2023-08-21T06:07:04;19.25;;;16.02;;
19971;SDS011;10147;16.402;102.848;2023-08-21T06:09:35;16.00;;;14.57;;
19971;SDS011;10147;16.402;102.848;2023-08-21T06:12:08;17.23;;;15.40;;
19971;SDS011;10147;16.402;102.848;2023-08-21T06:14:40;15.98;;;14.27;;
19971;SDS011;10147;16.402;102.848;2023-08-21T06:17:11;14.95;;;13.45;;
19971;SDS011;10147;16.402;102.848;2023-08-21T06:19:41;14.60;;;12.77;;
19971;SDS011;10147;16.402;102.848;2023-08-21T06:22:11;17.63;;;14.10;;
19971;SDS011;10147;16.402;102.848;2023-08-21T06:24:41;17.27;;;13.75;;
19971;SDS011;10147;16.402;102.848;2023-08-21T06:27:14;15.73;;;13.77;;
19971;SDS011;10147;16.402;102.848;2023-08-21T06:29:45;15.23;;;13.48;;
19971;SDS011;10147;16.402;102.848;2023-08-21T06:32:14;15.10;;;13.60;;
19971;SDS011;10147;16.402;102.848;2023-08-21T06:34:47;16.48;;;13.90;;
19971;SDS011;10147;16.402;102.848;2023-08-21T06:37:17;18.17;;;16.25;;
19971;SDS011;10147;16.402;102.848;2023-08-21T06:39:47;16.38;;;14.23;;
19971;SDS011;10147;16.402;102.848;2023-08-21T06:42:17;16.92;;;14.65;;
19971;SDS011;10147;16.402;102.848;2023-08-21T06:44:49;18.30;;;14.75;;
19971;SDS011;10147;16.402;102.848;2023-08-21T06:47:19;14.95;;;13.35;;
19971;SDS011;10147;16.402;102.848;2023-08-21T06:49:49;15.35;;;13.75;;
19971;SDS011;10147;16.402;102.848;2023-08-21T06:52:19;16.25;;;14.50;;
19971;SDS011;10147;16.402;102.848;2023-08-21T06:54:49;25.15;;;20.70;;
19971;SDS011;10147;16.402;102.848;2023-08-21T06:57:19;14.27;;;12.75;;
19971;SDS011;10147;16.402;102.848;2023-08-21T06:59:50;18.75;;;16.30;;
19971;SDS011;10147;16.402;102.848;2023-08-21T07:02:19;15.35;;;13.75;;
19971;SDS011;10147;16.402;102.848;2023-08-21T07:04:49;14.05;;;12.45;;
19971;SDS011;10147;16.402;102.848;2023-08-21T07:07:19;13.77;;;12.30;;
19971;SDS011;10147;16.402;102.848;2023-08-21T07:09:50;25.88;;;23.73;;
19971;SDS011;10147;16.402;102.848;2023-08-21T07:12:21;14.35;;;12.85;;
19971;SDS011;10147;16.402;102.848;2023-08-21T07:14:52;16.83;;;15.15;;
19971;SDS011;10147;16.402;102.848;2023-08-21T07:17:21;13.45;;;12.18;;
19971;SDS011;10147;16.402;102.848;2023-08-21T07:19:51;14.48;;;12.77;;
19971;SDS011;10147;16.402;102.848;2023-08-21T07:22:21;19.63;;;17.65;;
19971;SDS011;10147;16.402;102.848;2023-08-21T07:24:51;14.18;;;12.77;;
19971;SDS011;10147;16.402;102.848;2023-08-21T07:27:21;14.10;;;11.98;;
19971;SDS011;10147;16.402;102.848;2023-08-21T07:29:51;13.18;;;11.75;;
19971;SDS011;10147;16.402;102.848;2023-08-21T07:32:21;16.15;;;12.75;;
19971;SDS011;10147;16.402;102.848;2023-08-21T07:34:52;13.48;;;12.07;;
19971;SDS011;10147;16.402;102.848;2023-08-21T07:37:23;13.85;;;12.45;;
19971;SDS011;10147;16.402;102.848;2023-08-21T07:39:53;16.40;;;14.68;;
19971;SDS011;10147;16.402;102.848;2023-08-21T07:42:26;16.58;;;14.90;;
19971;SDS011;10147;16.402;102.848;2023-08-21T07:44:56;15.50;;;13.90;;
19971;SDS011;10147;16.402;102.848;2023-08-21T07:47:29;15.15;;;12.57;;
19971;SDS011;10147;16.402;102.848;2023-08-21T07:50:05;13.15;;;11.77;;
19971;SDS011;10147;16.402;102.848;2023-08-21T07:52:36;13.50;;;12.10;;
19971;SDS011;10147;16.402;102.848;2023-08-21T07:55:07;14.07;;;11.82;;
19971;SDS011;10147;16.402;102.848;2023-08-21T07:57:39;14.05;;;12.52;;
19971;SDS011;10147;16.402;102.848;2023-08-21T08:00:10;13.50;;;12.10;;
19971;SDS011;10147;16.402;102.848;2023-08-21T08:02:42;13.65;;;12.27;;
19971;SDS011;10147;16.402;102.848;2023-08-21T08:05:13;13.90;;;12.45;;
19971;SDS011;10147;16.402;102.848;2023-08-21T08:07:43;18.60;;;15.68;;
19971;SDS011;10147;16.402;102.848;2023-08-21T08:10:13;14.05;;;12.55;;
19971;SDS011;10147;16.402;102.848;2023-08-21T08:12:43;13.00;;;11.63;;
19971;SDS011;10147;16.402;102.848;2023-08-21T08:15:13;13.68;;;12.32;;
19971;SDS011;10147;16.402;102.848;2023-08-21T08:17:43;13.52;;;12.23;;
19971;SDS011;10147;16.402;102.848;2023-08-21T08:20:14;14.30;;;12.90;;
19971;SDS011;10147;16.402;102.848;2023-08-21T08:22:44;14.25;;;12.75;;
19971;SDS011;10147;16.402;102.848;2023-08-21T08:25:14;13.75;;;12.32;;
19971;SDS011;10147;16.402;102.848;2023-08-21T08:27:45;15.68;;;12.98;;
19971;SDS011;10147;16.402;102.848;2023-08-21T08:30:15;14.15;;;12.43;;
19971;SDS011;10147;16.402;102.848;2023-08-21T08:32:45;21.48;;;13.32;;
19971;SDS011;10147;16.402;102.848;2023-08-21T08:35:15;16.02;;;12.73;;
19971;SDS011;10147;16.402;102.848;2023-08-21T08:37:45;14.80;;;12.43;;
19971;SDS011;10147;16.402;102.848;2023-08-21T08:40:15;13.27;;;11.85;;
19971;SDS011;10147;16.402;102.848;2023-08-21T08:42:46;15.35;;;13.77;;
19971;SDS011;10147;16.402;102.848;2023-08-21T08:45:17;15.77;;;14.02;;
19971;SDS011;10147;16.402;102.848;2023-08-21T08:48:04;17.92;;;13.02;;
19971;SDS011;10147;16.402;102.848;2023-08-21T08:50:34;15.43;;;13.43;;
19971;SDS011;10147;16.402;102.848;2023-08-21T08:53:06;15.13;;;13.52;;
19971;SDS011;10147;16.402;102.848;2023-08-21T08:55:44;15.82;;;14.23;;
19971;SDS011;10147;16.402;102.848;2023-08-21T08:58:14;19.02;;;14.38;;
19971;SDS011;10147;16.402;102.848;2023-08-21T09:00:44;14.98;;;13.38;;
19971;SDS011;10147;16.402;102.848;2023-08-21T09:03:15;15.38;;;13.88;;
19971;SDS011;10147;16.402;102.848;2023-08-21T09:05:46;16.45;;;14.75;;
19971;SDS011;10147;16.402;102.848;2023-08-21T09:08:17;16.42;;;14.55;;
19971;SDS011;10147;16.402;102.848;2023-08-21T09:10:47;17.10;;;15.48;;
19971;SDS011;10147;16.402;102.848;2023-08-21T09:13:18;19.33;;;14.32;;
19971;SDS011;10147;16.402;102.848;2023-08-21T09:15:51;15.77;;;14.27;;
19971;SDS011;10147;16.402;102.848;2023-08-21T09:18:25;17.30;;;15.15;;
19971;SDS011;10147;16.402;102.848;2023-08-21T09:20:55;18.27;;;14.57;;
19971;SDS011;10147;16.402;102.848;2023-08-21T09:23:25;17.45;;;14.10;;
19971;SDS011;10147;16.402;102.848;2023-08-21T09:25:58;16.58;;;14.90;;
19971;SDS011;10147;16.402;102.848;2023-08-21T09:28:28;17.55;;;15.02;;
19971;SDS011;10147;16.402;102.848;2023-08-21T09:30:58;17.33;;;15.40;;
19971;SDS011;10147;16.402;102.848;2023-08-21T09:33:28;18.98;;;15.77;;
19971;SDS011;10147;16.402;102.848;2023-08-21T09:35:58;18.10;;;15.27;;
19971;SDS011;10147;16.402;102.848;2023-08-21T09:38:28;17.17;;;14.93;;
19971;SDS011;10147;16.402;102.848;2023-08-21T09:40:58;18.52;;;16.02;;
19971;SDS011;10147;16.402;102.848;2023-08-21T09:43:28;18.85;;;15.05;;
19971;SDS011;10147;16.402;102.848;2023-08-21T09:45:58;18.92;;;16.13;;
19971;SDS011;10147;16.402;102.848;2023-08-21T09:48:28;19.63;;;16.80;;
19971;SDS011;10147;16.402;102.848;2023-08-21T09:50:59;17.63;;;15.75;;
19971;SDS011;10147;16.402;102.848;2023-08-21T09:53:32;17.13;;;15.05;;
19971;SDS011;10147;16.402;102.848;2023-08-21T09:56:03;18.08;;;16.10;;
19971;SDS011;10147;16.402;102.848;2023-08-21T09:58:35;18.75;;;16.20;;
19971;SDS011;10147;16.402;102.848;2023-08-21T10:01:07;18.25;;;15.98;;
19971;SDS011;10147;16.402;102.848;2023-08-21T10:03:43;17.35;;;15.60;;
19971;SDS011;10147;16.402;102.848;2023-08-21T10:06:20;19.45;;;16.80;;
19971;SDS011;10147;16.402;102.848;2023-08-21T10:08:53;17.05;;;15.32;;
19971;SDS011;10147;16.402;102.848;2023-08-21T10:11:24;19.90;;;16.40;;
19971;SDS011;10147;16.402;102.848;2023-08-21T10:13:54;17.02;;;15.27;;
19971;SDS011;10147;16.402;102.848;2023-08-21T10:16:26;18.50;;;16.58;;
19971;SDS011;10147;16.402;102.848;2023-08-21T10:19:00;18.05;;;15.23;;
19971;SDS011;10147;16.402;102.848;2023-08-21T10:21:37;17.42;;;15.63;;
19971;SDS011;10147;16.402;102.848;2023-08-21T10:24:08;23.05;;;15.13;;
19971;SDS011;10147;16.402;102.848;2023-08-21T10:26:38;17.35;;;15.55;;
19971;SDS011;10147;16.402;102.848;2023-08-21T10:29:13;17.83;;;16.00;;
19971;SDS011;10147;16.402;102.848;2023-08-21T10:31:43;18.13;;;16.17;;
19971;SDS011;10147;16.402;102.848;2023-08-21T10:34:14;18.60;;;16.48;;
19971;SDS011;10147;16.402;102.848;2023-08-21T10:42:39;18.27;;;16.05;;
19971;SDS011;10147;16.402;102.848;2023-08-21T10:45:11;16.77;;;15.05;;
19971;SDS011;10147;16.402;102.848;2023-08-21T10:47:41;17.95;;;15.85;;
19971;SDS011;10147;16.402;102.848;2023-08-21T10:50:13;19.30;;;17.10;;
19971;SDS011;10147;16.402;102.848;2023-08-21T10:52:43;18.77;;;16.67;;
19971;SDS011;10147;16.402;102.848;2023-08-21T10:55:16;18.27;;;16.33;;
19971;SDS011;10147;16.402;102.848;2023-08-21T10:57:47;18.35;;;16.55;;
19971;SDS011;10147;16.402;102.848;2023-08-21T11:00:19;19.83;;;16.90;;
19971;SDS011;10147;16.402;102.848;2023-08-21T11:02:49;18.52;;;16.20;;
19971;SDS011;10147;16.402;102.848;2023-08-21T11:05:20;22.23;;;18.83;;
19971;SDS011;10147;16.402;102.848;2023-08-21T11:07:50;20.05;;;17.15;;
19971;SDS011;10147;16.402;102.848;2023-08-21T11:10:24;19.35;;;16.02;;
19971;SDS011;10147;16.402;102.848;2023-08-21T11:12:57;19.40;;;17.35;;
19971;SDS011;10147;16.402;102.848;2023-08-21T11:15:32;19.60;;;17.55;;
19971;SDS011;10147;16.402;102.848;2023-08-21T11:18:03;19.58;;;17.58;;
19971;SDS011;10147;16.402;102.848;2023-08-21T11:20:33;20.75;;;16.70;;
19971;SDS011;10147;16.402;102.848;2023-08-21T11:23:05;19.63;;;17.38;;
19971;SDS011;10147;16.402;102.848;2023-08-21T11:25:39;25.25;;;17.98;;
19971;SDS011;10147;16.402;102.848;2023-08-21T11:28:10;20.05;;;17.95;;
19971;SDS011;10147;16.402;102.848;2023-08-21T11:30:45;23.48;;;17.83;;
19971;SDS011;10147;16.402;102.848;2023-08-21T11:33:14;25.83;;;20.92;;
19971;SDS011;10147;16.402;102.848;2023-08-21T11:35:45;25.27;;;22.17;;
19971;SDS011;10147;16.402;102.848;2023-08-21T11:38:17;26.95;;;22.80;;
19971;SDS011;10147;16.402;102.848;2023-08-21T11:40:52;37.25;;;28.05;;
19971;SDS011;10147;16.402;102.848;2023-08-21T11:46:17;79.68;;;52.65;;
19971;SDS011;10147;16.402;102.848;2023-08-21T11:48:48;83.68;;;55.40;;
19971;SDS011;10147;16.402;102.848;2023-08-21T11:51:21;68.22;;;46.72;;
19971;SDS011;10147;16.402;102.848;2023-08-21T11:53:52;52.75;;;38.05;;
19971;SDS011;10147;16.402;102.848;2023-08-21T11:56:27;39.25;;;29.30;;
19971;SDS011;10147;16.402;102.848;2023-08-21T11:58:58;32.30;;;27.90;;
19971;SDS011;10147;16.402;102.848;2023-08-21T12:01:28;30.85;;;26.73;;
19971;SDS011;10147;16.402;102.848;2023-08-21T12:04:13;29.13;;;25.05;;
19971;SDS011;10147;16.402;102.848;2023-08-21T12:06:44;25.67;;;21.90;;
19971;SDS011;10147;16.402;102.848;2023-08-21T12:09:15;21.15;;;18.83;;
19971;SDS011;10147;16.402;102.848;2023-08-21T12:11:47;22.23;;;19.00;;
19971;SDS011;10147;16.402;102.848;2023-08-21T12:14:17;18.60;;;16.73;;
19971;SDS011;10147;16.402;102.848;2023-08-21T12:16:47;19.60;;;15.77;;
19971;SDS011;10147;16.402;102.848;2023-08-21T12:19:17;17.52;;;15.45;;
19971;SDS011;10147;16.402;102.848;2023-08-21T12:21:48;17.92;;;14.95;;
19971;SDS011;10147;16.402;102.848;2023-08-21T12:24:18;18.02;;;15.98;;
19971;SDS011;10147;16.402;102.848;2023-08-21T12:26:48;19.70;;;17.08;;
19971;SDS011;10147;16.402;102.848;2023-08-21T12:29:18;22.70;;;17.08;;
19971;SDS011;10147;16.402;102.848;2023-08-21T12:31:48;19.75;;;16.30;;
19971;SDS011;10147;16.402;102.848;2023-08-21T12:34:18;19.42;;;16.23;;
19971;SDS011;10147;16.402;102.848;2023-08-21T12:36:50;17.45;;;15.65;;
19971;SDS011;10147;16.402;102.848;2023-08-21T12:39:21;18.73;;;15.50;;
19971;SDS011;10147;16.402;102.848;2023-08-21T12:41:51;17.63;;;15.55;;
19971;SDS011;10147;16.402;102.848;2023-08-21T12:44:21;17.13;;;15.10;;
19971;SDS011;10147;16.402;102.848;2023-08-21T12:46:51;22.58;;;14.95;;
19971;SDS011;10147;16.402;102.848;2023-08-21T12:49:21;20.23;;;18.25;;
19971;SDS011;10147;16.402;102.848;2023-08-21T12:51:50;17.92;;;13.25;;
19971;SDS011;10147;16.402;102.848;2023-08-21T12:54:21;16.45;;;13.45;;
19971;SDS011;10147;16.402;102.848;2023-08-21T12:56:51;24.52;;;16.38;;
19971;SDS011;10147;16.402;102.848;2023-08-21T12:59:22;18.52;;;16.63;;
19971;SDS011;10147;16.402;102.848;2023-08-21T13:01:53;20.38;;;18.27;;
19971;SDS011;10147;16.402;102.848;2023-08-21T13:04:23;17.90;;;16.13;;
19971;SDS011;10147;16.402;102.848;2023-08-21T13:06:54;26.92;;;24.52;;
19971;SDS011;10147;16.402;102.848;2023-08-21T13:09:24;21.70;;;19.55;;
19971;SDS011;10147;16.402;102.848;2023-08-21T13:11:54;20.90;;;18.63;;
19971;SDS011;10147;16.402;102.848;2023-08-21T13:14:24;23.23;;;20.83;;
19971;SDS011;10147;16.402;102.848;2023-08-21T13:16:59;22.33;;;20.02;;
19971;SDS011;10147;16.402;102.848;2023-08-21T13:19:29;22.38;;;18.70;;
19971;SDS011;10147;16.402;102.848;2023-08-21T13:21:59;23.52;;;18.27;;
19971;SDS011;10147;16.402;102.848;2023-08-21T13:24:29;23.30;;;20.90;;
19971;SDS011;10147;16.402;102.848;2023-08-21T13:26:59;21.35;;;17.65;;
19971;SDS011;10147;16.402;102.848;2023-08-21T13:29:29;21.55;;;17.88;;
19971;SDS011;10147;16.402;102.848;2023-08-21T13:31:59;21.85;;;18.67;;
19971;SDS011;10147;16.402;102.848;2023-08-21T13:34:29;20.17;;;18.00;;
19971;SDS011;10147;16.402;102.848;2023-08-21T13:36:59;20.90;;;18.70;;
19971;SDS011;10147;16.402;102.848;2023-08-21T13:39:29;20.33;;;17.95;;
19971;SDS011;10147;16.402;102.848;2023-08-21T13:42:03;22.73;;;20.35;;
19971;SDS011;10147;16.402;102.848;2023-08-21T13:44:33;24.02;;;20.70;;
19971;SDS011;10147;16.402;102.848;2023-08-21T13:47:03;24.20;;;20.55;;
19971;SDS011;10147;16.402;102.848;2023-08-21T13:49:34;25.50;;;21.27;;
19971;SDS011;10147;16.402;102.848;2023-08-21T13:52:04;28.58;;;21.75;;
19971;SDS011;10147;16.402;102.848;2023-08-21T13:54:34;23.65;;;20.42;;
19971;SDS011;10147;16.402;102.848;2023-08-21T13:57:04;21.90;;;19.55;;
19971;SDS011;10147;16.402;102.848;2023-08-21T13:59:34;23.50;;;20.33;;
19971;SDS011;10147;16.402;102.848;2023-08-21T14:02:04;28.58;;;23.50;;
19971;SDS011;10147;16.402;102.848;2023-08-21T14:04:34;36.50;;;29.23;;
19971;SDS011;10147;16.402;102.848;2023-08-21T14:07:04;40.15;;;30.65;;
19971;SDS011;10147;16.402;102.848;2023-08-21T14:09:34;19.25;;;17.00;;
19971;SDS011;10147;16.402;102.848;2023-08-21T14:12:04;18.55;;;16.45;;
19971;SDS011;10147;16.402;102.848;2023-08-21T14:14:36;17.60;;;15.80;;
19971;SDS011;10147;16.402;102.848;2023-08-21T14:17:07;21.13;;;19.00;;
19971;SDS011;10147;16.402;102.848;2023-08-21T14:19:36;16.30;;;14.60;;
19971;SDS011;10147;16.402;102.848;2023-08-21T14:22:06;15.10;;;13.80;;
19971;SDS011;10147;16.402;102.848;2023-08-21T14:24:36;14.93;;;13.43;;
19971;SDS011;10147;16.402;102.848;2023-08-21T14:27:06;15.70;;;14.20;;
19971;SDS011;10147;16.402;102.848;2023-08-21T14:29:36;16.63;;;14.95;;
19971;SDS011;10147;16.402;102.848;2023-08-21T14:32:06;15.52;;;13.98;;